Pagina principală
METAR-TAF:

METAR-TAF

Aeroporturi :

Angoon, Alaska, Statele Unite ale Americii

Latitudine: 57-30N, longitudine: 134-35W, elevație: 0 m

Observații meteo curente

Raportul a fost făcut în urmă cu 28 de minute, la 22:56 UTC
Vânt 5 kt de la Sud-est
Temperatură 9°C
Umiditate 81%
Presiune 1007 hPa
Vizibilitate: 16.1 km
Nori fragmentați la o înălțime de 3000 picior
Nori fragmentați la o înălțime de 3600 picior
Total acoperit la o înălțime de 4300 picior
ploaie slabă

METAR: PAGN 252256Z AUTO 14005KT 10SM -RA BKN030 BKN036 OVC043 09/06 A2974 RMK AO2 SLP058 P0000 T00940056

Ora: 15:24 (23:24 UTC)


TAF: lipsă

Observații și prognoze meteo pentru peste 4.000 de aeroporturi (rapoarte METAR și TAF).

Stațiile disponibile sunt reprezentate pe hartă prin puncte galbene și roșii.

Țineți indicatorul mouse-ului pe punctul dorit pentru a vedea denumirea stației.

Apoi, faceți clic pentru a vedea observațiile și prognozele meteorologice.

Pentru a schimba harta: Pentru mărire, faceți clic pe butoanele verzi cu cruce neagră; pentru micșorare, pe butonul verde cu o liniuță; pentru hărți învecinate, pe săgețile verzi.


METAR-TAF: